Historyczne dane pomiarowe

Dodano dane terminowe – wersja testowa.

Dane z okresu 1951-2019

Wersja bazy: 1.34 [2019-03-16, lista zmian], aktualizacja planowana na 2019-04-15

Dane meteo z obszaru Polski uzyskane na podstawie danych udostępnionych przez Instytut Meteorologii i Gospodarki Wodnej – Państwowy Instytut Badawczy.

 

Wybierz Datę:    

       

TemperaturaWilgotnośćWiatrCiśnienieOpadyŚniegCzas trwania zjawisk
 Stacja t tx tn tng RH VA  wxwx mslp ppp RRR   cm mm wxwxwxwxwxwxwx
1987-08-14 10.6 16.3 5.0--- 6.7 3.0---- 0.6------------
1987-08-13 11.1 18.0 5.3--- 5.7 1.0---- 0.0------------
1987-08-12 11.6 17.7 8.0--- 5.0 1.0---- 0.7------------
1987-08-11 13.4 17.7 11.2--- 6.0 2.3---- 0.4------------
1987-08-10 16.5 19.7 13.6--- 5.7 2.0---- 0.3------------
1987-08-09 13.8 21.5 6.9--- 2.3 3.0---- 0.0------------
1987-08-08 13.1 19.7 7.1--- 1.3 1.3---- 0.0------------
1987-08-07 8.8 13.1 3.4--- 6.0 1.3---- 0.9------------
1987-08-06 9.9 15.1 7.4--- 5.3 1.3---- 1.6------------
1987-08-05 10.6 15.1 8.3--- 7.0 2.3---- 5.3------------
1987-08-04 15.0 18.5 12.0--- 7.7 3.0---- 4.4------------
1987-08-03 14.8 19.0 11.5--- 3.3 1.0---- 0.2------------
1987-08-02 14.4 18.5 11.7--- 5.0 2.0---- 15.1------------
1987-08-01 13.7 19.8 8.1--- 5.0 0.7---- 5.7------------
1987-07-31 14.4 20.6 12.3--- 8.0 2.0---- 2.9------------
1987-07-30 16.3 23.4 9.5--- 3.3 2.0---- 6.6------------
1987-07-29 13.0 19.0 9.0--- 5.7 1.7---- 0.0------------
1987-07-28 11.6 15.1 11.0--- 7.3 1.7---- 6.3------------
1987-07-27 11.7 15.9 8.1--- 5.7 2.0---- 4.1------------
1987-07-26 12.4 20.6 9.8--- 7.3 1.7---- 5.0------------
1987-07-25 17.5 23.5 13.0--- 5.3 1.0---- 5.7------------
1987-07-24 19.4 26.0 16.4--- 1.7 1.0---- 5.7------------
1987-07-23 19.5 26.8 11.0--- 1.3 0.7---- 16.5------------
1987-07-22 19.2 24.0 15.3--- 3.7 1.0---- 0.0------------
1987-07-21 18.2 25.6 12.0--- 4.0 0.7---- 4.2------------
1987-07-20 20.3 23.6 17.3--- 4.0 1.7---- 0.0------------
1987-07-19 21.9 27.6 16.1--- 3.7 3.0---- 7.5------------
1987-07-18 22.7 28.7 15.7--- 2.7 1.7---- 0.0------------
1987-07-17 23.8 29.8 15.6--- 3.7 3.7---- 0.0------------
1987-07-16 19.5 27.1 12.5--- 5.3 0.7---- 2.8------------
1987-07-15 17.0 27.1 8.1--- 2.0 0.7---- 0.0------------
1987-07-14 16.0 21.7 10.0--- 0.0 2.3---- 0.0------------
1987-07-13 18.3 25.1 13.2--- 4.7 2.0---- 0.0------------
1987-07-12 20.6 27.2 13.3--- 3.0 4.3---- 2.2------------
1987-07-11 16.2 24.9 7.1--- 1.3 1.7---- 0.0------------
1987-07-10 14.3 19.2 9.6--- 4.7 1.0---- 0.0------------
1987-07-09 16.6 25.2 14.1--- 8.0 0.7---- 16.3------------
1987-07-08 17.8 27.5 9.4--- 0.3 3.0---- 0.0------------
1987-07-07 17.2 27.0 7.0--- 0.3 1.3---- 0.0------------
1987-07-06 15.0 23.0 6.9--- 0.3 2.0---- 0.0------------
1987-07-05 15.0 20.6 12.5--- 5.3 2.0---- 0.2------------
1987-07-04 18.5 23.4 12.9--- 2.7 3.0---- 0.0------------
1987-07-03 17.8 22.4 13.6--- 6.7 1.0---- 0.0------------
1987-07-02 17.2 27.8 14.4--- 8.0 2.3---- 0.2------------
1987-07-01 23.0 29.5 15.9--- 0.3 2.3---- 0.0------------
1987-06-30 21.1 29.6 13.1--- 1.7 0.7---- 0.0------------
1987-06-29 20.7 25.1 16.6--- 4.0 2.0---- 0.0------------
1987-06-28 19.3 25.0 13.0--- 2.0 1.3---- 0.0------------
1987-06-27 16.4 20.5 14.6--- 8.0 0.0---- 0.3------------
1987-06-26 15.1 23.3 6.1--- 3.0 2.3---- 18.7------------
1987-06-25 14.0 18.5 12.1--- 5.3 2.3---- 0.5------------
1987-06-24 15.1 21.0 10.5--- 5.0 1.7---- 4.8------------
1987-06-23 14.8 21.0 11.3--- 5.0 1.0---- 0.0------------
1987-06-22 12.7 16.8 12.2--- 8.0 1.3---- 1.6------------
1987-06-21 14.3 20.0 7.7--- 5.0 1.3---- 6.9------------
1987-06-20 12.8 20.5 5.4--- 4.7 1.3---- 0.0------------
1987-06-19 10.9 18.0 6.5--- 4.0 2.7---- 0.0------------
1987-06-18 8.2 12.1 5.6--- 5.0 2.0---- 8.0------------
1987-06-17 9.5 14.7 6.0--- 5.3 1.0---- 0.8------------
1987-06-16 13.3 25.8 9.0--- 7.0 2.0---- 15.3------------
459.0 ms

 

Źródłem pochodzenia danych jest Instytut Meteorologii i Gospodarki Wodnej – Państwowy Instytut Badawczy. Dane Instytutu Meteorologii i Gospodarki Wodnej – Państwowego Instytutu Badawczego zostały przetworzone.

Dane źródłowe można odnaleźć na stronie https://dane.imgw.pl